sensor_id;sensor_type;location;lat;lon;timestamp;P1;durP1;ratioP1;P2;durP2;ratioP2
59504;SDS011;45321;53.200;5.814;2023-08-24T00:00:47;9.88;;;6.85;;
59504;SDS011;45321;53.200;5.814;2023-08-24T00:03:13;9.85;;;8.18;;
59504;SDS011;45321;53.200;5.814;2023-08-24T00:05:40;8.77;;;7.65;;
59504;SDS011;45321;53.200;5.814;2023-08-24T00:08:07;11.85;;;8.80;;
59504;SDS011;45321;53.200;5.814;2023-08-24T00:10:34;12.15;;;9.60;;
59504;SDS011;45321;53.200;5.814;2023-08-24T00:13:00;11.73;;;8.50;;
59504;SDS011;45321;53.200;5.814;2023-08-24T00:15:26;12.48;;;9.00;;
59504;SDS011;45321;53.200;5.814;2023-08-24T00:17:52;12.75;;;9.38;;
59504;SDS011;45321;53.200;5.814;2023-08-24T00:20:18;19.83;;;10.23;;
59504;SDS011;45321;53.200;5.814;2023-08-24T00:22:45;10.13;;;8.90;;
59504;SDS011;45321;53.200;5.814;2023-08-24T00:25:11;13.55;;;9.55;;
59504;SDS011;45321;53.200;5.814;2023-08-24T00:27:37;11.75;;;8.68;;
59504;SDS011;45321;53.200;5.814;2023-08-24T00:30:04;11.90;;;9.25;;
59504;SDS011;45321;53.200;5.814;2023-08-24T00:32:32;11.10;;;9.10;;
59504;SDS011;45321;53.200;5.814;2023-08-24T00:35:01;11.13;;;9.30;;
59504;SDS011;45321;53.200;5.814;2023-08-24T00:37:27;11.93;;;9.18;;
59504;SDS011;45321;53.200;5.814;2023-08-24T00:39:54;13.93;;;9.50;;
59504;SDS011;45321;53.200;5.814;2023-08-24T00:42:20;12.57;;;9.50;;
59504;SDS011;45321;53.200;5.814;2023-08-24T00:44:47;12.98;;;9.43;;
59504;SDS011;45321;53.200;5.814;2023-08-24T00:47:14;10.48;;;9.10;;
59504;SDS011;45321;53.200;5.814;2023-08-24T00:49:40;12.32;;;9.30;;
59504;SDS011;45321;53.200;5.814;2023-08-24T00:52:06;10.55;;;9.02;;
59504;SDS011;45321;53.200;5.814;2023-08-24T00:54:33;12.70;;;9.18;;
59504;SDS011;45321;53.200;5.814;2023-08-24T00:56:59;10.88;;;8.80;;
59504;SDS011;45321;53.200;5.814;2023-08-24T00:59:25;12.20;;;9.50;;
59504;SDS011;45321;53.200;5.814;2023-08-24T01:01:51;13.90;;;9.13;;
59504;SDS011;45321;53.200;5.814;2023-08-24T01:04:17;11.85;;;9.65;;
59504;SDS011;45321;53.200;5.814;2023-08-24T01:06:43;13.05;;;9.48;;
59504;SDS011;45321;53.200;5.814;2023-08-24T01:09:09;15.07;;;9.70;;
59504;SDS011;45321;53.200;5.814;2023-08-24T01:17:04;14.43;;;10.32;;
59504;SDS011;45321;53.200;5.814;2023-08-24T01:19:42;11.50;;;9.15;;
59504;SDS011;45321;53.200;5.814;2023-08-24T01:22:54;13.00;;;8.98;;
59504;SDS011;45321;53.200;5.814;2023-08-24T01:25:07;13.70;;;9.40;;
59504;SDS011;45321;53.200;5.814;2023-08-24T01:27:48;15.98;;;9.82;;
59504;SDS011;45321;53.200;5.814;2023-08-24T01:30:15;15.30;;;9.15;;
59504;SDS011;45321;53.200;5.814;2023-08-24T01:32:42;14.35;;;8.68;;
59504;SDS011;45321;53.200;5.814;2023-08-24T01:35:09;15.13;;;9.75;;
59504;SDS011;45321;53.200;5.814;2023-08-24T01:37:35;15.35;;;10.52;;
59504;SDS011;45321;53.200;5.814;2023-08-24T01:40:05;14.80;;;10.07;;
59504;SDS011;45321;53.200;5.814;2023-08-24T01:42:40;15.25;;;10.07;;
59504;SDS011;45321;53.200;5.814;2023-08-24T01:45:12;14.00;;;9.45;;
59504;SDS011;45321;53.200;5.814;2023-08-24T01:47:39;13.85;;;9.50;;
59504;SDS011;45321;53.200;5.814;2023-08-24T01:50:07;13.55;;;9.38;;
59504;SDS011;45321;53.200;5.814;2023-08-24T01:52:34;14.95;;;9.43;;
59504;SDS011;45321;53.200;5.814;2023-08-24T01:55:00;12.13;;;8.55;;
59504;SDS011;45321;53.200;5.814;2023-08-24T01:57:26;12.82;;;9.07;;
59504;SDS011;45321;53.200;5.814;2023-08-24T01:59:52;12.90;;;9.50;;
59504;SDS011;45321;53.200;5.814;2023-08-24T02:02:18;15.80;;;9.77;;
59504;SDS011;45321;53.200;5.814;2023-08-24T02:04:43;14.73;;;8.82;;
59504;SDS011;45321;53.200;5.814;2023-08-24T02:07:09;11.15;;;7.90;;
59504;SDS011;45321;53.200;5.814;2023-08-24T02:09:35;9.98;;;7.38;;
59504;SDS011;45321;53.200;5.814;2023-08-24T02:12:00;12.13;;;7.97;;
59504;SDS011;45321;53.200;5.814;2023-08-24T02:14:27;14.30;;;7.75;;
59504;SDS011;45321;53.200;5.814;2023-08-24T02:16:52;13.27;;;7.97;;
59504;SDS011;45321;53.200;5.814;2023-08-24T02:19:18;13.73;;;7.90;;
59504;SDS011;45321;53.200;5.814;2023-08-24T02:21:44;11.25;;;7.25;;
59504;SDS011;45321;53.200;5.814;2023-08-24T02:24:09;12.43;;;7.68;;
59504;SDS011;45321;53.200;5.814;2023-08-24T02:26:35;11.30;;;8.00;;
59504;SDS011;45321;53.200;5.814;2023-08-24T02:29:01;14.43;;;8.52;;
59504;SDS011;45321;53.200;5.814;2023-08-24T02:31:27;13.27;;;8.32;;
59504;SDS011;45321;53.200;5.814;2023-08-24T02:33:52;10.32;;;8.20;;
59504;SDS011;45321;53.200;5.814;2023-08-24T02:36:18;13.95;;;8.70;;
59504;SDS011;45321;53.200;5.814;2023-08-24T02:38:44;13.40;;;8.43;;
59504;SDS011;45321;53.200;5.814;2023-08-24T02:41:10;13.35;;;9.02;;
59504;SDS011;45321;53.200;5.814;2023-08-24T02:43:36;13.32;;;8.68;;
59504;SDS011;45321;53.200;5.814;2023-08-24T02:46:07;14.25;;;9.30;;
59504;SDS011;45321;53.200;5.814;2023-08-24T02:48:34;13.20;;;9.48;;
59504;SDS011;45321;53.200;5.814;2023-08-24T02:51:01;14.85;;;9.05;;
59504;SDS011;45321;53.200;5.814;2023-08-24T02:53:28;11.63;;;9.20;;
59504;SDS011;45321;53.200;5.814;2023-08-24T02:55:54;14.43;;;9.68;;
59504;SDS011;45321;53.200;5.814;2023-08-24T02:58:20;12.98;;;9.80;;
59504;SDS011;45321;53.200;5.814;2023-08-24T03:00:46;14.07;;;10.15;;
59504;SDS011;45321;53.200;5.814;2023-08-24T03:03:15;11.27;;;9.60;;
59504;SDS011;45321;53.200;5.814;2023-08-24T03:05:41;12.95;;;9.77;;
59504;SDS011;45321;53.200;5.814;2023-08-24T03:08:24;11.60;;;9.68;;
59504;SDS011;45321;53.200;5.814;2023-08-24T03:10:50;14.57;;;9.48;;
59504;SDS011;45321;53.200;5.814;2023-08-24T03:13:16;16.08;;;9.98;;
59504;SDS011;45321;53.200;5.814;2023-08-24T03:15:42;12.13;;;9.68;;
59504;SDS011;45321;53.200;5.814;2023-08-24T03:18:11;10.27;;;9.10;;
59504;SDS011;45321;53.200;5.814;2023-08-24T03:20:38;13.68;;;10.02;;
59504;SDS011;45321;53.200;5.814;2023-08-24T03:23:04;15.25;;;9.77;;
59504;SDS011;45321;53.200;5.814;2023-08-24T03:25:31;17.38;;;10.30;;
59504;SDS011;45321;53.200;5.814;2023-08-24T03:28:00;15.32;;;10.15;;
59504;SDS011;45321;53.200;5.814;2023-08-24T03:30:26;10.68;;;9.52;;
59504;SDS011;45321;53.200;5.814;2023-08-24T03:32:51;11.75;;;9.07;;
59504;SDS011;45321;53.200;5.814;2023-08-24T03:35:17;13.15;;;9.23;;
59504;SDS011;45321;53.200;5.814;2023-08-24T03:37:43;16.10;;;10.35;;
59504;SDS011;45321;53.200;5.814;2023-08-24T03:40:08;17.40;;;10.40;;
59504;SDS011;45321;53.200;5.814;2023-08-24T03:42:34;14.90;;;9.95;;
59504;SDS011;45321;53.200;5.814;2023-08-24T03:45:00;14.90;;;10.10;;
59504;SDS011;45321;53.200;5.814;2023-08-24T03:47:26;12.88;;;9.40;;
59504;SDS011;45321;53.200;5.814;2023-08-24T03:49:52;12.85;;;9.55;;
59504;SDS011;45321;53.200;5.814;2023-08-24T03:52:17;12.20;;;9.18;;
59504;SDS011;45321;53.200;5.814;2023-08-24T03:54:43;15.27;;;9.93;;
59504;SDS011;45321;53.200;5.814;2023-08-24T03:57:09;11.73;;;9.20;;
59504;SDS011;45321;53.200;5.814;2023-08-24T03:59:34;12.15;;;9.13;;
59504;SDS011;45321;53.200;5.814;2023-08-24T04:02:00;16.23;;;9.50;;
59504;SDS011;45321;53.200;5.814;2023-08-24T04:04:28;14.15;;;9.90;;
59504;SDS011;45321;53.200;5.814;2023-08-24T04:06:57;17.08;;;9.73;;
59504;SDS011;45321;53.200;5.814;2023-08-24T04:09:23;12.35;;;9.18;;
59504;SDS011;45321;53.200;5.814;2023-08-24T04:11:49;15.25;;;10.07;;
59504;SDS011;45321;53.200;5.814;2023-08-24T04:14:15;11.95;;;9.20;;
59504;SDS011;45321;53.200;5.814;2023-08-24T04:16:40;13.75;;;9.02;;
59504;SDS011;45321;53.200;5.814;2023-08-24T04:19:07;12.02;;;8.95;;
59504;SDS011;45321;53.200;5.814;2023-08-24T04:21:33;14.75;;;8.73;;
59504;SDS011;45321;53.200;5.814;2023-08-24T04:23:59;13.05;;;8.98;;
59504;SDS011;45321;53.200;5.814;2023-08-24T04:26:25;14.35;;;8.48;;
59504;SDS011;45321;53.200;5.814;2023-08-24T04:28:51;11.93;;;9.05;;
59504;SDS011;45321;53.200;5.814;2023-08-24T04:31:17;12.32;;;8.77;;
59504;SDS011;45321;53.200;5.814;2023-08-24T04:33:42;13.20;;;8.77;;
59504;SDS011;45321;53.200;5.814;2023-08-24T04:36:08;15.68;;;8.65;;
59504;SDS011;45321;53.200;5.814;2023-08-24T04:38:34;12.80;;;8.25;;
59504;SDS011;45321;53.200;5.814;2023-08-24T04:40:59;16.42;;;9.00;;
59504;SDS011;45321;53.200;5.814;2023-08-24T04:43:25;14.38;;;8.65;;
59504;SDS011;45321;53.200;5.814;2023-08-24T04:45:52;13.18;;;9.77;;
59504;SDS011;45321;53.200;5.814;2023-08-24T04:48:22;13.73;;;9.90;;
59504;SDS011;45321;53.200;5.814;2023-08-24T04:50:49;13.20;;;10.40;;
59504;SDS011;45321;53.200;5.814;2023-08-24T04:53:15;15.82;;;9.30;;
59504;SDS011;45321;53.200;5.814;2023-08-24T04:55:42;12.73;;;9.60;;
59504;SDS011;45321;53.200;5.814;2023-08-24T04:58:09;11.02;;;9.50;;
59504;SDS011;45321;53.200;5.814;2023-08-24T05:00:35;13.50;;;9.20;;
59504;SDS011;45321;53.200;5.814;2023-08-24T05:03:01;16.40;;;8.88;;
59504;SDS011;45321;53.200;5.814;2023-08-24T05:05:31;13.57;;;8.75;;
59504;SDS011;45321;53.200;5.814;2023-08-24T05:07:58;13.88;;;9.10;;
59504;SDS011;45321;53.200;5.814;2023-08-24T05:10:25;17.05;;;9.98;;
59504;SDS011;45321;53.200;5.814;2023-08-24T05:12:51;15.52;;;9.55;;
59504;SDS011;45321;53.200;5.814;2023-08-24T05:15:17;15.48;;;9.50;;
59504;SDS011;45321;53.200;5.814;2023-08-24T05:17:43;15.00;;;9.13;;
59504;SDS011;45321;53.200;5.814;2023-08-24T05:20:08;13.07;;;8.48;;
59504;SDS011;45321;53.200;5.814;2023-08-24T05:22:40;15.60;;;8.93;;
59504;SDS011;45321;53.200;5.814;2023-08-24T05:25:06;12.63;;;8.88;;
59504;SDS011;45321;53.200;5.814;2023-08-24T05:27:32;12.13;;;8.95;;
59504;SDS011;45321;53.200;5.814;2023-08-24T05:29:58;10.82;;;8.27;;
59504;SDS011;45321;53.200;5.814;2023-08-24T05:32:24;15.73;;;8.13;;
59504;SDS011;45321;53.200;5.814;2023-08-24T05:34:49;15.50;;;8.35;;
59504;SDS011;45321;53.200;5.814;2023-08-24T05:37:15;9.95;;;7.80;;
59504;SDS011;45321;53.200;5.814;2023-08-24T05:39:41;14.07;;;8.10;;
59504;SDS011;45321;53.200;5.814;2023-08-24T05:42:08;11.25;;;7.75;;
59504;SDS011;45321;53.200;5.814;2023-08-24T05:44:34;14.27;;;7.30;;
59504;SDS011;45321;53.200;5.814;2023-08-24T05:47:00;11.23;;;7.28;;
59504;SDS011;45321;53.200;5.814;2023-08-24T05:49:25;10.32;;;6.72;;
59504;SDS011;45321;53.200;5.814;2023-08-24T05:51:51;9.27;;;7.35;;
59504;SDS011;45321;53.200;5.814;2023-08-24T05:54:17;11.50;;;7.57;;
59504;SDS011;45321;53.200;5.814;2023-08-24T05:56:46;9.73;;;6.47;;
59504;SDS011;45321;53.200;5.814;2023-08-24T05:59:12;12.27;;;8.40;;
59504;SDS011;45321;53.200;5.814;2023-08-24T06:01:39;10.63;;;6.72;;
59504;SDS011;45321;53.200;5.814;2023-08-24T06:04:06;13.95;;;7.53;;
59504;SDS011;45321;53.200;5.814;2023-08-24T06:06:36;11.48;;;6.72;;
59504;SDS011;45321;53.200;5.814;2023-08-24T06:09:02;9.90;;;7.00;;
59504;SDS011;45321;53.200;5.814;2023-08-24T06:11:34;12.38;;;6.38;;
59504;SDS011;45321;53.200;5.814;2023-08-24T06:14:01;9.18;;;6.82;;
59504;SDS011;45321;53.200;5.814;2023-08-24T06:16:27;12.68;;;6.45;;
59504;SDS011;45321;53.200;5.814;2023-08-24T06:18:53;12.80;;;6.80;;
59504;SDS011;45321;53.200;5.814;2023-08-24T06:21:19;11.57;;;6.32;;
59504;SDS011;45321;53.200;5.814;2023-08-24T06:23:45;9.68;;;6.30;;
59504;SDS011;45321;53.200;5.814;2023-08-24T06:26:12;9.23;;;6.53;;
59504;SDS011;45321;53.200;5.814;2023-08-24T06:28:42;12.18;;;6.25;;
59504;SDS011;45321;53.200;5.814;2023-08-24T06:31:08;8.80;;;6.45;;
59504;SDS011;45321;53.200;5.814;2023-08-24T06:33:34;10.43;;;6.88;;
59504;SDS011;45321;53.200;5.814;2023-08-24T06:36:01;9.38;;;6.75;;
59504;SDS011;45321;53.200;5.814;2023-08-24T06:38:27;13.07;;;7.43;;
59504;SDS011;45321;53.200;5.814;2023-08-24T06:40:54;9.82;;;5.60;;
59504;SDS011;45321;53.200;5.814;2023-08-24T06:43:20;12.00;;;6.30;;
59504;SDS011;45321;53.200;5.814;2023-08-24T06:45:46;10.40;;;6.20;;
59504;SDS011;45321;53.200;5.814;2023-08-24T06:48:11;8.30;;;5.47;;
59504;SDS011;45321;53.200;5.814;2023-08-24T06:50:37;9.32;;;6.03;;
59504;SDS011;45321;53.200;5.814;2023-08-24T06:53:03;8.07;;;5.05;;
59504;SDS011;45321;53.200;5.814;2023-08-24T06:55:29;12.60;;;5.63;;
59504;SDS011;45321;53.200;5.814;2023-08-24T06:57:55;8.93;;;4.97;;
59504;SDS011;45321;53.200;5.814;2023-08-24T07:00:21;10.63;;;5.20;;
59504;SDS011;45321;53.200;5.814;2023-08-24T07:02:48;6.80;;;4.82;;
59504;SDS011;45321;53.200;5.814;2023-08-24T07:05:15;7.75;;;4.97;;
59504;SDS011;45321;53.200;5.814;2023-08-24T07:07:46;8.20;;;4.10;;
59504;SDS011;45321;53.200;5.814;2023-08-24T07:10:14;8.73;;;4.05;;
59504;SDS011;45321;53.200;5.814;2023-08-24T07:12:40;6.60;;;3.70;;
59504;SDS011;45321;53.200;5.814;2023-08-24T07:15:06;9.55;;;3.58;;
59504;SDS011;45321;53.200;5.814;2023-08-24T07:17:33;8.18;;;3.78;;
59504;SDS011;45321;53.200;5.814;2023-08-24T07:19:59;5.65;;;3.42;;
59504;SDS011;45321;53.200;5.814;2023-08-24T07:22:24;4.88;;;3.42;;
59504;SDS011;45321;53.200;5.814;2023-08-24T07:24:53;6.13;;;3.33;;
59504;SDS011;45321;53.200;5.814;2023-08-24T07:27:19;6.97;;;3.80;;
59504;SDS011;45321;53.200;5.814;2023-08-24T07:29:44;5.63;;;2.70;;
59504;SDS011;45321;53.200;5.814;2023-08-24T07:32:10;6.90;;;3.15;;
59504;SDS011;45321;53.200;5.814;2023-08-24T07:34:36;6.00;;;2.70;;
59504;SDS011;45321;53.200;5.814;2023-08-24T07:37:01;5.72;;;2.83;;
59504;SDS011;45321;53.200;5.814;2023-08-24T07:39:27;6.05;;;2.78;;
59504;SDS011;45321;53.200;5.814;2023-08-24T07:41:53;7.20;;;3.63;;
59504;SDS011;45321;53.200;5.814;2023-08-24T07:44:19;6.55;;;3.00;;
59504;SDS011;45321;53.200;5.814;2023-08-24T07:46:46;7.03;;;3.00;;
59504;SDS011;45321;53.200;5.814;2023-08-24T07:49:13;5.05;;;2.60;;
59504;SDS011;45321;53.200;5.814;2023-08-24T07:51:38;4.80;;;2.63;;
59504;SDS011;45321;53.200;5.814;2023-08-24T07:54:05;4.22;;;2.70;;
59504;SDS011;45321;53.200;5.814;2023-08-24T07:56:32;6.00;;;2.35;;
59504;SDS011;45321;53.200;5.814;2023-08-24T07:58:58;3.38;;;2.60;;
59504;SDS011;45321;53.200;5.814;2023-08-24T08:01:23;4.25;;;2.17;;
59504;SDS011;45321;53.200;5.814;2023-08-24T08:03:49;5.03;;;2.92;;
59504;SDS011;45321;53.200;5.814;2023-08-24T08:06:15;4.95;;;2.75;;
59504;SDS011;45321;53.200;5.814;2023-08-24T08:08:41;4.90;;;2.58;;
59504;SDS011;45321;53.200;5.814;2023-08-24T08:11:07;5.28;;;2.78;;
59504;SDS011;45321;53.200;5.814;2023-08-24T08:13:33;7.43;;;2.90;;
59504;SDS011;45321;53.200;5.814;2023-08-24T08:16:05;6.03;;;2.97;;
59504;SDS011;45321;53.200;5.814;2023-08-24T08:18:32;5.13;;;2.50;;
59504;SDS011;45321;53.200;5.814;2023-08-24T08:20:58;9.07;;;4.07;;
59504;SDS011;45321;53.200;5.814;2023-08-24T08:23:24;8.15;;;3.42;;
59504;SDS011;45321;53.200;5.814;2023-08-24T08:25:49;7.53;;;4.00;;
59504;SDS011;45321;53.200;5.814;2023-08-24T08:28:16;10.23;;;4.65;;
59504;SDS011;45321;53.200;5.814;2023-08-24T08:30:43;10.40;;;5.10;;
59504;SDS011;45321;53.200;5.814;2023-08-24T08:33:09;8.38;;;4.25;;
59504;SDS011;45321;53.200;5.814;2023-08-24T08:35:35;8.52;;;4.40;;
59504;SDS011;45321;53.200;5.814;2023-08-24T08:38:02;10.02;;;5.35;;
59504;SDS011;45321;53.200;5.814;2023-08-24T08:40:29;10.38;;;6.68;;
59504;SDS011;45321;53.200;5.814;2023-08-24T08:42:56;10.70;;;6.25;;
59504;SDS011;45321;53.200;5.814;2023-08-24T08:45:26;10.52;;;7.03;;
59504;SDS011;45321;53.200;5.814;2023-08-24T08:47:53;11.45;;;6.63;;
59504;SDS011;45321;53.200;5.814;2023-08-24T08:50:22;10.10;;;7.15;;
59504;SDS011;45321;53.200;5.814;2023-08-24T08:52:49;10.25;;;6.63;;
59504;SDS011;45321;53.200;5.814;2023-08-24T08:55:14;10.55;;;6.53;;
59504;SDS011;45321;53.200;5.814;2023-08-24T08:57:40;9.95;;;6.63;;
59504;SDS011;45321;53.200;5.814;2023-08-24T09:00:09;9.32;;;5.85;;
59504;SDS011;45321;53.200;5.814;2023-08-24T09:02:39;11.18;;;7.03;;
59504;SDS011;45321;53.200;5.814;2023-08-24T09:05:08;9.43;;;6.00;;
59504;SDS011;45321;53.200;5.814;2023-08-24T09:07:34;10.27;;;7.13;;
59504;SDS011;45321;53.200;5.814;2023-08-24T09:10:02;9.90;;;6.72;;
59504;SDS011;45321;53.200;5.814;2023-08-24T09:12:32;11.10;;;7.28;;
59504;SDS011;45321;53.200;5.814;2023-08-24T09:14:59;10.10;;;7.10;;
59504;SDS011;45321;53.200;5.814;2023-08-24T09:17:24;12.73;;;6.90;;
59504;SDS011;45321;53.200;5.814;2023-08-24T09:19:51;11.30;;;7.53;;
59504;SDS011;45321;53.200;5.814;2023-08-24T09:22:18;13.82;;;6.68;;
59504;SDS011;45321;53.200;5.814;2023-08-24T09:24:44;12.68;;;6.70;;
59504;SDS011;45321;53.200;5.814;2023-08-24T09:27:17;11.13;;;6.57;;
59504;SDS011;45321;53.200;5.814;2023-08-24T09:29:52;9.23;;;6.50;;
59504;SDS011;45321;53.200;5.814;2023-08-24T09:32:22;11.85;;;6.25;;
59504;SDS011;45321;53.200;5.814;2023-08-24T09:35:18;10.85;;;6.50;;
59504;SDS011;45321;53.200;5.814;2023-08-24T09:37:45;9.48;;;6.13;;
59504;SDS011;45321;53.200;5.814;2023-08-24T09:40:14;12.75;;;6.90;;
59504;SDS011;45321;53.200;5.814;2023-08-24T09:42:43;7.30;;;5.95;;
59504;SDS011;45321;53.200;5.814;2023-08-24T09:45:12;9.57;;;6.10;;
59504;SDS011;45321;53.200;5.814;2023-08-24T09:47:39;9.13;;;6.15;;
59504;SDS011;45321;53.200;5.814;2023-08-24T09:50:09;10.30;;;5.88;;
59504;SDS011;45321;53.200;5.814;2023-08-24T09:52:35;9.57;;;6.00;;
59504;SDS011;45321;53.200;5.814;2023-08-24T09:55:03;11.00;;;6.25;;
59504;SDS011;45321;53.200;5.814;2023-08-24T09:57:36;11.52;;;6.43;;
59504;SDS011;45321;53.200;5.814;2023-08-24T10:00:07;10.82;;;6.57;;
59504;SDS011;45321;53.200;5.814;2023-08-24T10:05:16;10.32;;;6.82;;
59504;SDS011;45321;53.200;5.814;2023-08-24T10:07:52;12.30;;;7.60;;
59504;SDS011;45321;53.200;5.814;2023-08-24T10:10:21;10.82;;;8.07;;
59504;SDS011;45321;53.200;5.814;2023-08-24T10:12:56;12.07;;;7.43;;
59504;SDS011;45321;53.200;5.814;2023-08-24T10:15:24;20.00;;;9.30;;
59504;SDS011;45321;53.200;5.814;2023-08-24T10:17:51;10.50;;;7.78;;
59504;SDS011;45321;53.200;5.814;2023-08-24T10:20:19;11.52;;;8.02;;
59504;SDS011;45321;53.200;5.814;2023-08-24T10:22:46;14.75;;;7.78;;
59504;SDS011;45321;53.200;5.814;2023-08-24T10:25:12;10.75;;;8.15;;
59504;SDS011;45321;53.200;5.814;2023-08-24T10:27:39;12.07;;;8.35;;
59504;SDS011;45321;53.200;5.814;2023-08-24T10:30:12;12.75;;;8.02;;
59504;SDS011;45321;53.200;5.814;2023-08-24T10:32:39;12.60;;;7.95;;
59504;SDS011;45321;53.200;5.814;2023-08-24T10:35:06;11.15;;;8.57;;
59504;SDS011;45321;53.200;5.814;2023-08-24T10:37:32;15.32;;;8.50;;
59504;SDS011;45321;53.200;5.814;2023-08-24T10:39:59;12.73;;;9.75;;
59504;SDS011;45321;53.200;5.814;2023-08-24T10:42:25;15.40;;;8.77;;
59504;SDS011;45321;53.200;5.814;2023-08-24T10:44:51;13.43;;;8.50;;
59504;SDS011;45321;53.200;5.814;2023-08-24T10:47:18;15.60;;;10.20;;
59504;SDS011;45321;53.200;5.814;2023-08-24T10:52:21;18.23;;;10.13;;
59504;SDS011;45321;53.200;5.814;2023-08-24T10:54:51;16.75;;;10.30;;
59504;SDS011;45321;53.200;5.814;2023-08-24T10:59:57;18.42;;;11.20;;
59504;SDS011;45321;53.200;5.814;2023-08-24T11:02:24;19.15;;;11.98;;
59504;SDS011;45321;53.200;5.814;2023-08-24T11:07:32;19.45;;;13.10;;
59504;SDS011;45321;53.200;5.814;2023-08-24T11:09:58;18.65;;;13.75;;
59504;SDS011;45321;53.200;5.814;2023-08-24T11:12:24;20.77;;;13.68;;
59504;SDS011;45321;53.200;5.814;2023-08-24T11:14:50;23.92;;;14.77;;
59504;SDS011;45321;53.200;5.814;2023-08-24T11:17:22;19.98;;;13.75;;
59504;SDS011;45321;53.200;5.814;2023-08-24T11:19:49;23.65;;;14.35;;
59504;SDS011;45321;53.200;5.814;2023-08-24T11:22:18;26.70;;;14.50;;
59504;SDS011;45321;53.200;5.814;2023-08-24T11:24:44;26.23;;;15.57;;
59504;SDS011;45321;53.200;5.814;2023-08-24T11:27:10;22.70;;;15.48;;
59504;SDS011;45321;53.200;5.814;2023-08-24T11:29:36;22.00;;;15.75;;
59504;SDS011;45321;53.200;5.814;2023-08-24T11:32:02;21.35;;;16.30;;
59504;SDS011;45321;53.200;5.814;2023-08-24T11:34:28;19.77;;;15.18;;
59504;SDS011;45321;53.200;5.814;2023-08-24T11:36:59;25.10;;;16.67;;
59504;SDS011;45321;53.200;5.814;2023-08-24T11:39:25;20.42;;;16.27;;
59504;SDS011;45321;53.200;5.814;2023-08-24T11:42:00;24.95;;;16.30;;
59504;SDS011;45321;53.200;5.814;2023-08-24T11:44:30;23.13;;;17.02;;
59504;SDS011;45321;53.200;5.814;2023-08-24T11:47:11;22.40;;;17.45;;
59504;SDS011;45321;53.200;5.814;2023-08-24T11:49:37;23.02;;;17.40;;
59504;SDS011;45321;53.200;5.814;2023-08-24T11:52:03;23.92;;;17.25;;
59504;SDS011;45321;53.200;5.814;2023-08-24T11:54:32;22.25;;;17.50;;
59504;SDS011;45321;53.200;5.814;2023-08-24T11:56:58;24.70;;;17.35;;
59504;SDS011;45321;53.200;5.814;2023-08-24T11:59:23;25.02;;;18.05;;
59504;SDS011;45321;53.200;5.814;2023-08-24T12:01:50;24.23;;;17.20;;
59504;SDS011;45321;53.200;5.814;2023-08-24T12:04:17;25.63;;;17.70;;
59504;SDS011;45321;53.200;5.814;2023-08-24T12:06:44;24.80;;;17.98;;
59504;SDS011;45321;53.200;5.814;2023-08-24T12:09:09;25.88;;;19.10;;
59504;SDS011;45321;53.200;5.814;2023-08-24T12:11:36;24.33;;;18.48;;
59504;SDS011;45321;53.200;5.814;2023-08-24T12:14:02;24.00;;;18.63;;
59504;SDS011;45321;53.200;5.814;2023-08-24T12:16:30;25.42;;;18.20;;
59504;SDS011;45321;53.200;5.814;2023-08-24T12:18:57;24.88;;;19.02;;
59504;SDS011;45321;53.200;5.814;2023-08-24T12:21:25;24.70;;;18.83;;
59504;SDS011;45321;53.200;5.814;2023-08-24T12:23:59;22.00;;;18.70;;
59504;SDS011;45321;53.200;5.814;2023-08-24T12:26:28;24.15;;;19.17;;
59504;SDS011;45321;53.200;5.814;2023-08-24T12:29:01;25.20;;;20.45;;
59504;SDS011;45321;53.200;5.814;2023-08-24T12:31:31;25.92;;;20.63;;
59504;SDS011;45321;53.200;5.814;2023-08-24T12:33:58;28.90;;;21.83;;
59504;SDS011;45321;53.200;5.814;2023-08-24T12:36:25;29.20;;;21.33;;
59504;SDS011;45321;53.200;5.814;2023-08-24T12:38:51;32.83;;;22.73;;
59504;SDS011;45321;53.200;5.814;2023-08-24T12:41:17;30.92;;;23.20;;
59504;SDS011;45321;53.200;5.814;2023-08-24T12:43:42;31.35;;;23.52;;
59504;SDS011;45321;53.200;5.814;2023-08-24T12:46:08;26.52;;;23.08;;
59504;SDS011;45321;53.200;5.814;2023-08-24T12:48:34;29.88;;;23.75;;
59504;SDS011;45321;53.200;5.814;2023-08-24T12:51:00;28.92;;;24.40;;
59504;SDS011;45321;53.200;5.814;2023-08-24T12:53:26;28.00;;;23.42;;
59504;SDS011;45321;53.200;5.814;2023-08-24T12:55:52;27.20;;;24.10;;
59504;SDS011;45321;53.200;5.814;2023-08-24T12:58:17;27.20;;;23.95;;
59504;SDS011;45321;53.200;5.814;2023-08-24T13:00:45;30.52;;;26.10;;
59504;SDS011;45321;53.200;5.814;2023-08-24T13:03:11;27.75;;;24.77;;
59504;SDS011;45321;53.200;5.814;2023-08-24T13:05:37;29.48;;;25.10;;
59504;SDS011;45321;53.200;5.814;2023-08-24T13:08:02;34.67;;;27.67;;
59504;SDS011;45321;53.200;5.814;2023-08-24T13:10:28;29.50;;;26.42;;
59504;SDS011;45321;53.200;5.814;2023-08-24T13:12:54;30.77;;;24.42;;
59504;SDS011;45321;53.200;5.814;2023-08-24T13:15:21;31.00;;;24.45;;
59504;SDS011;45321;53.200;5.814;2023-08-24T13:17:47;27.17;;;23.30;;
59504;SDS011;45321;53.200;5.814;2023-08-24T13:20:13;24.92;;;20.98;;
59504;SDS011;45321;53.200;5.814;2023-08-24T13:22:39;23.23;;;20.88;;
59504;SDS011;45321;53.200;5.814;2023-08-24T13:25:04;29.25;;;22.60;;
59504;SDS011;45321;53.200;5.814;2023-08-24T13:27:30;26.85;;;22.08;;
59504;SDS011;45321;53.200;5.814;2023-08-24T13:30:00;29.30;;;23.42;;
59504;SDS011;45321;53.200;5.814;2023-08-24T13:32:25;26.20;;;22.63;;
59504;SDS011;45321;53.200;5.814;2023-08-24T13:34:51;26.30;;;21.88;;
59504;SDS011;45321;53.200;5.814;2023-08-24T13:37:17;26.27;;;20.65;;
59504;SDS011;45321;53.200;5.814;2023-08-24T13:39:43;24.40;;;21.58;;
59504;SDS011;45321;53.200;5.814;2023-08-24T13:42:09;27.13;;;21.55;;
59504;SDS011;45321;53.200;5.814;2023-08-24T13:44:35;24.92;;;21.08;;
59504;SDS011;45321;53.200;5.814;2023-08-24T13:47:01;27.25;;;23.65;;
59504;SDS011;45321;53.200;5.814;2023-08-24T13:49:26;26.60;;;22.50;;
59504;SDS011;45321;53.200;5.814;2023-08-24T13:51:52;27.27;;;23.85;;
59504;SDS011;45321;53.200;5.814;2023-08-24T13:54:18;31.02;;;24.33;;
59504;SDS011;45321;53.200;5.814;2023-08-24T13:56:46;26.83;;;24.08;;
59504;SDS011;45321;53.200;5.814;2023-08-24T13:59:14;29.50;;;23.88;;
59504;SDS011;45321;53.200;5.814;2023-08-24T14:01:40;27.45;;;24.20;;
59504;SDS011;45321;53.200;5.814;2023-08-24T14:04:07;26.02;;;23.30;;
59504;SDS011;45321;53.200;5.814;2023-08-24T14:06:33;26.05;;;23.33;;
59504;SDS011;45321;53.200;5.814;2023-08-24T14:09:01;27.70;;;24.58;;
59504;SDS011;45321;53.200;5.814;2023-08-24T14:11:28;25.77;;;23.15;;
59504;SDS011;45321;53.200;5.814;2023-08-24T14:13:54;25.90;;;23.20;;
59504;SDS011;45321;53.200;5.814;2023-08-24T14:16:20;26.52;;;23.85;;
59504;SDS011;45321;53.200;5.814;2023-08-24T14:18:47;27.95;;;24.83;;
59504;SDS011;45321;53.200;5.814;2023-08-24T14:21:13;29.13;;;26.00;;
59504;SDS011;45321;53.200;5.814;2023-08-24T14:23:40;29.20;;;25.75;;
59504;SDS011;45321;53.200;5.814;2023-08-24T14:26:06;30.25;;;25.83;;
59504;SDS011;45321;53.200;5.814;2023-08-24T14:28:51;33.13;;;27.15;;
59504;SDS011;45321;53.200;5.814;2023-08-24T14:31:24;29.17;;;26.08;;
59504;SDS011;45321;53.200;5.814;2023-08-24T14:33:51;30.83;;;26.52;;
59504;SDS011;45321;53.200;5.814;2023-08-24T14:36:18;29.25;;;26.05;;
59504;SDS011;45321;53.200;5.814;2023-08-24T14:38:47;29.98;;;26.67;;
59504;SDS011;45321;53.200;5.814;2023-08-24T14:41:14;30.98;;;27.25;;
59504;SDS011;45321;53.200;5.814;2023-08-24T14:43:40;30.23;;;27.02;;
59504;SDS011;45321;53.200;5.814;2023-08-24T14:46:06;32.28;;;27.13;;
59504;SDS011;45321;53.200;5.814;2023-08-24T14:48:33;30.50;;;27.17;;